Time;durP1;ratioP1;P1;durP2;ratioP2;P2;SDS_P1;SDS_P2;PMS_P1;PMS_P2;Temp;Humidity;BMP_temperature;BMP_pressure;BME280_temperature;BME280_humidity;BME280_pressure;Samples;Min_cycle;Max_cycle;Signal;HPM_P1;HPM_P2
2024/04/18 00:00:05;;;;;;;50.10;19.20;;;15.80;71.40;;;;;;5445961;26;20022;-72
2024/04/18 00:02:31;;;;;;;52.90;19.88;;;15.80;71.50;;;;;;5444211;26;20068;-71
2024/04/18 00:04:56;;;;;;;50.13;19.77;;;15.80;71.40;;;;;;5441563;26;20814;-71
2024/04/18 00:07:22;;;;;;;43.63;19.77;;;15.70;71.30;;;;;;5441998;26;20525;-71
2024/04/18 00:09:48;;;;;;;45.50;17.87;;;15.70;71.40;;;;;;5441237;26;19999;-71
2024/04/18 00:12:13;;;;;;;45.00;19.07;;;15.70;71.30;;;;;;5441026;26;20699;-72
2024/04/18 00:14:39;;;;;;;45.20;18.33;;;15.70;71.30;;;;;;5439315;26;20793;-71
2024/04/18 00:17:04;;;;;;;44.97;17.27;;;15.70;71.40;;;;;;5438350;26;20066;-72
2024/04/18 00:19:30;;;;;;;40.50;16.63;;;15.70;71.40;;;;;;5440970;26;20456;-71
2024/04/18 00:21:59;;;;;;;43.03;16.20;;;15.70;71.40;;;;;;5440517;26;20026;-71
2024/04/18 00:24:26;;;;;;;40.50;16.38;;;15.70;71.50;;;;;;5498028;25;20011;-71
2024/04/18 00:26:51;;;;;;;;;;;15.60;71.40;;;;;;5438807;26;20014;-74
2024/04/18 00:29:17;;;;;;;38.30;15.47;;;15.60;71.60;;;;;;5429699;26;19932;-73
2024/04/18 00:31:43;;;;;;;33.60;14.63;;;15.60;71.60;;;;;;5439851;26;20736;-71
2024/04/18 00:34:08;;;;;;;43.80;17.37;;;15.60;71.60;;;;;;5440399;26;20739;-71
2024/04/18 00:36:34;;;;;;;38.60;14.83;;;15.60;71.50;;;;;;5438537;26;20014;-72
2024/04/18 00:39:00;;;;;;;35.40;14.17;;;15.60;71.60;;;;;;5439846;26;20015;-72
2024/04/18 00:41:25;;;;;;;35.33;15.30;;;15.60;71.40;;;;;;5441356;26;20006;-71
2024/04/18 00:43:51;;;;;;;35.20;13.20;;;15.60;71.40;;;;;;5440758;26;19999;-73
2024/04/18 00:46:19;;;;;;;37.17;14.30;;;15.60;71.40;;;;;;5439138;26;19999;-72
2024/04/18 00:48:45;;;;;;;34.67;13.07;;;15.60;71.30;;;;;;5439797;26;20042;-71
2024/04/18 00:51:11;;;;;;;30.73;11.90;;;15.50;71.30;;;;;;5444641;26;20022;-74
2024/04/18 00:53:37;;;;;;;31.23;12.03;;;15.60;71.50;;;;;;5446569;26;19995;-73
2024/04/18 00:56:03;;;;;;;33.30;13.07;;;15.60;71.40;;;;;;5445679;26;20018;-74
2024/04/18 00:58:29;;;;;;;29.80;11.93;;;15.60;71.40;;;;;;5446884;26;19995;-71
2024/04/18 01:00:55;;;;;;;32.17;12.10;;;15.50;71.40;;;;;;5445443;26;20053;-71
2024/04/18 01:03:21;;;;;;;31.42;11.77;;;15.50;71.50;;;;;;5444648;26;20015;-72
2024/04/18 01:05:47;;;;;;;28.43;11.33;;;15.50;71.50;;;;;;5447081;26;20029;-73
2024/04/18 01:08:12;;;;;;;29.27;12.27;;;15.50;71.50;;;;;;5445419;26;20071;-73
2024/04/18 01:10:38;;;;;;;22.37;9.73;;;15.50;71.50;;;;;;5446367;26;20018;-71
2024/04/18 01:13:04;;;;;;;26.53;10.40;;;15.50;71.50;;;;;;5447160;26;20013;-71
2024/04/18 01:15:29;;;;;;;26.50;10.43;;;15.50;71.60;;;;;;5445787;26;20075;-71
2024/04/18 01:17:55;;;;;;;21.90;10.07;;;15.50;71.50;;;;;;5446748;26;20530;-71
2024/04/18 01:20:22;;;;;;;26.83;9.27;;;15.50;71.30;;;;;;5443575;26;20017;-71
2024/04/18 01:22:48;;;;;;;24.17;10.23;;;15.50;71.30;;;;;;5445668;26;20398;-73
2024/04/18 01:25:13;;;;;;;21.97;8.40;;;15.50;71.30;;;;;;5446005;26;20011;-72
2024/04/18 01:27:39;;;;;;;21.63;9.17;;;15.40;71.20;;;;;;5444622;26;20003;-71
2024/04/18 01:30:05;;;;;;;18.13;8.33;;;15.40;71.30;;;;;;5438582;26;20002;-72
2024/04/18 01:32:35;;;;;;;23.05;8.27;;;15.50;71.20;;;;;;5448476;26;20056;-71
2024/04/18 01:35:01;;;;;;;18.75;9.07;;;15.40;71.20;;;;;;5446368;26;20288;-72
2024/04/18 01:37:27;;;;;;;22.27;8.40;;;15.40;71.40;;;;;;5434660;26;20419;-72
2024/04/18 01:39:53;;;;;;;20.23;9.00;;;15.40;71.40;;;;;;5448320;26;19998;-73
2024/04/18 01:42:18;;;;;;;19.20;7.87;;;15.40;71.30;;;;;;5448035;26;19999;-71
2024/04/18 01:44:46;;;;;;;22.50;8.43;;;15.40;71.30;;;;;;5447839;26;20003;-71
2024/04/18 01:47:12;;;;;;;18.40;7.95;;;15.40;71.40;;;;;;5448700;26;20511;-71
2024/04/18 01:49:38;;;;;;;18.67;8.13;;;15.40;71.30;;;;;;5447995;26;20076;-71
2024/04/18 01:52:07;;;;;;;16.35;7.57;;;15.40;71.30;;;;;;5445962;26;20448;-73
2024/04/18 01:54:33;;;;;;;18.70;6.93;;;15.40;71.30;;;;;;5447515;26;19998;-72
2024/04/18 01:56:59;;;;;;;18.93;8.13;;;15.30;71.20;;;;;;5447723;26;20042;-71
2024/04/18 01:59:26;;;;;;;19.35;6.80;;;15.30;71.20;;;;;;5447946;26;20018;-72
2024/04/18 02:01:55;;;;;;;18.42;7.03;;;15.30;71.20;;;;;;5448317;26;20014;-71
2024/04/18 02:04:21;;;;;;;18.73;6.88;;;15.30;71.20;;;;;;5431353;26;19995;-71
2024/04/18 02:06:48;;;;;;;12.83;6.53;;;15.30;71.20;;;;;;5441979;26;20014;-71
2024/04/18 02:09:14;;;;;;;15.52;6.70;;;15.30;71.10;;;;;;5439369;26;20003;-72
2024/04/18 02:11:41;;;;;;;12.57;5.50;;;15.30;71.20;;;;;;5482251;25;19999;-71
2024/04/18 02:14:06;;;;;;;16.00;6.55;;;15.30;71.20;;;;;;5441367;26;20076;-73
2024/04/18 02:16:32;;;;;;;11.53;5.97;;;15.30;71.30;;;;;;5484766;25;20153;-73
2024/04/18 02:18:57;;;;;;;15.63;6.63;;;15.30;71.20;;;;;;5441509;26;20051;-74
2024/04/18 02:21:23;;;;;;;11.27;5.40;;;15.30;71.30;;;;;;5439564;26;19995;-72
2024/04/18 02:23:49;;;;;;;15.23;6.13;;;15.30;71.40;;;;;;5496654;25;20003;-71
2024/04/18 02:26:15;;;;;;;16.67;6.40;;;15.20;71.40;;;;;;5441799;26;20013;-71
2024/04/18 02:28:40;;;;;;;11.57;4.80;;;15.30;71.40;;;;;;5438946;26;19999;-71
2024/04/18 02:31:06;;;;;;;13.60;5.50;;;15.30;71.20;;;;;;5438737;26;20648;-72
2024/04/18 02:33:32;;;;;;;13.73;5.13;;;15.20;71.20;;;;;;5437458;26;20440;-74
2024/04/18 02:35:58;;;;;;;11.90;5.20;;;15.20;71.20;;;;;;5496998;25;20074;-73
2024/04/18 02:38:23;;;;;;;13.80;5.43;;;15.20;71.30;;;;;;5438719;26;20003;-72
2024/04/18 02:40:49;;;;;;;13.13;5.47;;;15.20;71.20;;;;;;5438447;26;20006;-71
2024/04/18 02:43:14;;;;;;;12.87;5.43;;;15.20;71.30;;;;;;5439668;26;20002;-71
2024/04/18 02:45:41;;;;;;;8.70;4.27;;;15.20;71.20;;;;;;5438901;26;20014;-74
2024/04/18 02:48:06;;;;;;;15.30;5.63;;;15.20;71.20;;;;;;5438167;26;20014;-74
2024/04/18 02:50:32;;;;;;;10.07;4.40;;;15.20;71.20;;;;;;5441733;26;20003;-72
2024/04/18 02:52:58;;;;;;;9.70;4.40;;;15.20;71.30;;;;;;5446060;26;19991;-71
2024/04/18 02:55:23;;;;;;;11.20;4.80;;;15.10;71.30;;;;;;5489534;25;20019;-71
2024/04/18 02:57:49;;;;;;;9.17;4.83;;;15.10;71.40;;;;;;5441445;26;20033;-71
2024/04/18 03:00:16;;;;;;;11.43;4.53;;;15.10;71.30;;;;;;5446877;26;19999;-71
2024/04/18 03:02:41;;;;;;;10.05;4.22;;;15.10;71.40;;;;;;5448576;26;20017;-71
2024/04/18 03:05:07;;;;;;;11.63;4.27;;;15.10;71.30;;;;;;5445939;26;20007;-74
2024/04/18 03:07:32;;;;;;;8.73;4.40;;;15.10;71.20;;;;;;5506661;25;20096;-73
2024/04/18 03:09:58;;;;;;;7.87;4.33;;;15.10;71.20;;;;;;5485913;25;20022;-71
2024/04/18 03:12:24;;;;;;;10.13;4.23;;;15.10;71.20;;;;;;5449178;26;20003;-72
2024/04/18 03:14:49;;;;;;;8.97;4.43;;;15.10;71.10;;;;;;5450663;26;20327;-71
2024/04/18 03:17:15;;;;;;;8.47;3.87;;;15.00;71.10;;;;;;5450645;26;20065;-70
2024/04/18 03:19:41;;;;;;;11.23;3.97;;;15.10;71.10;;;;;;5451069;26;20003;-71
2024/04/18 03:22:07;;;;;;;6.33;3.53;;;15.00;71.30;;;;;;5450830;26;20540;-71
2024/04/18 03:24:32;;;;;;;6.40;3.57;;;15.10;71.20;;;;;;5448512;26;20631;-71
2024/04/18 03:26:58;;;;;;;8.03;3.60;;;15.10;71.10;;;;;;5447933;26;20007;-71
2024/04/18 03:29:23;;;;;;;8.37;3.87;;;15.00;71.30;;;;;;5448170;26;19999;-72
2024/04/18 03:31:50;;;;;;;6.13;3.50;;;15.10;71.20;;;;;;5447837;26;20007;-72
2024/04/18 03:34:16;;;;;;;;;;;15.10;71.10;;;;;;5506407;25;20334;-71
2024/04/18 03:36:51;;;;;;;6.40;3.10;;;15.00;71.20;;;;;;5446367;26;19970;-71
2024/04/18 03:39:18;;;;;;;5.95;3.17;;;15.00;71.30;;;;;;5447752;26;20261;-71
2024/04/18 03:41:46;;;;;;;8.77;3.53;;;15.00;71.20;;;;;;5447623;26;20003;-71
2024/04/18 03:44:12;;;;;;;7.43;3.10;;;15.00;71.20;;;;;;5447968;26;20067;-71
2024/04/18 03:46:38;;;;;;;6.10;3.23;;;15.00;71.20;;;;;;5448594;26;20023;-71
2024/04/18 03:49:04;;;;;;;7.90;2.60;;;15.00;71.20;;;;;;5449619;26;20010;-71
2024/04/18 03:51:30;;;;;;;6.50;2.88;;;15.00;71.20;;;;;;5447913;26;20054;-71
2024/04/18 03:53:56;;;;;;;6.10;2.90;;;15.00;71.10;;;;;;5449844;26;19999;-71
2024/04/18 03:56:22;;;;;;;4.32;2.28;;;15.00;71.10;;;;;;5449797;26;20418;-71
2024/04/18 03:58:48;;;;;;;5.00;2.60;;;15.00;71.10;;;;;;5450194;26;20003;-71
2024/04/18 04:01:14;;;;;;;6.72;2.80;;;15.00;71.10;;;;;;5442206;26;20370;-71
2024/04/18 04:03:40;;;;;;;6.90;2.63;;;15.00;71.10;;;;;;5448344;26;20011;-71
2024/04/18 04:06:05;;;;;;;4.43;2.70;;;15.00;71.20;;;;;;5441373;26;20515;-71
2024/04/18 04:08:31;;;;;;;6.83;3.00;;;15.00;71.10;;;;;;5443707;26;20010;-73
2024/04/18 04:10:57;;;;;;;7.87;2.87;;;14.90;71.30;;;;;;5443362;26;20331;-71
2024/04/18 04:13:22;;;;;;;5.30;2.13;;;14.90;71.30;;;;;;5443174;26;19999;-74
2024/04/18 04:15:49;;;;;;;4.60;2.83;;;14.90;71.30;;;;;;5481386;25;20003;-71
2024/04/18 04:18:15;;;;;;;;;;;15.00;71.20;;;;;;5440617;26;20015;-71
2024/04/18 04:20:41;;;;;;;6.32;2.65;;;14.90;71.10;;;;;;5440909;26;19928;-74
2024/04/18 04:23:07;;;;;;;3.72;2.25;;;14.90;71.20;;;;;;5442896;26;20026;-70
2024/04/18 04:25:33;;;;;;;4.33;2.73;;;14.90;71.20;;;;;;5442769;26;20007;-71
2024/04/18 04:27:58;;;;;;;5.83;1.93;;;14.90;71.10;;;;;;5443290;26;20052;-72
2024/04/18 04:30:24;;;;;;;3.83;2.03;;;14.90;71.10;;;;;;5476173;25;20149;-71
2024/04/18 04:32:50;;;;;;;4.57;2.13;;;14.90;71.20;;;;;;5488921;25;19995;-71
2024/04/18 04:35:16;;;;;;;4.50;2.17;;;14.90;71.20;;;;;;5441419;26;20007;-75
2024/04/18 04:37:43;;;;;;;5.13;2.80;;;14.90;71.20;;;;;;5473403;25;19995;-74
2024/04/18 04:40:09;;;;;;;2.95;1.85;;;14.90;71.10;;;;;;5443202;26;20007;-71
2024/04/18 04:42:34;;;;;;;4.03;2.10;;;14.80;71.30;;;;;;5442657;26;19995;-71
2024/04/18 04:45:00;;;;;;;6.20;2.30;;;14.80;71.20;;;;;;5439032;26;20014;-71
2024/04/18 04:47:26;;;;;;;3.10;1.53;;;14.80;71.30;;;;;;5442545;26;20040;-71
2024/04/18 04:49:51;;;;;;;5.13;2.37;;;14.80;71.40;;;;;;5440536;26;20002;-73
2024/04/18 04:52:17;;;;;;;4.70;2.33;;;14.80;71.40;;;;;;5449429;26;20440;-71
2024/04/18 04:54:43;;;;;;;4.77;1.87;;;14.80;71.30;;;;;;5447009;26;20447;-72
2024/04/18 04:57:10;;;;;;;3.22;1.70;;;14.80;71.30;;;;;;5448982;26;19998;-72
2024/04/18 04:59:36;;;;;;;;;;;14.80;71.30;;;;;;5449894;26;20003;-73
2024/04/18 05:02:02;;;;;;;3.25;1.85;;;14.80;71.30;;;;;;5448421;26;19924;-71
2024/04/18 05:04:29;;;;;;;5.77;2.30;;;14.80;71.10;;;;;;5445307;26;20007;-75
2024/04/18 05:06:55;;;;;;;3.42;1.75;;;14.80;71.00;;;;;;5455544;26;20216;-72
2024/04/18 05:09:21;;;;;;;3.90;2.00;;;14.80;71.00;;;;;;5445382;26;20463;-71
2024/04/18 05:11:47;;;;;;;4.93;1.90;;;14.80;71.00;;;;;;5446887;26;20377;-71
2024/04/18 05:14:13;;;;;;;4.05;1.83;;;14.80;71.10;;;;;;5447925;26;19999;-73
2024/04/18 05:16:39;;;;;;;2.47;1.30;;;14.80;71.00;;;;;;5445671;26;20544;-71
2024/04/18 05:19:05;;;;;;;5.43;1.83;;;14.80;71.00;;;;;;5441754;26;20004;-73
2024/04/18 05:21:31;;;;;;;2.83;1.40;;;14.80;71.00;;;;;;5437711;26;20021;-71
2024/04/18 05:23:57;;;;;;;5.93;1.85;;;14.80;70.80;;;;;;5447086;26;19999;-70
2024/04/18 05:26:31;;;;;;;2.75;1.77;;;14.80;70.80;;;;;;5448812;26;20038;-71
2024/04/18 05:31:42;;;;;;;3.60;1.20;;;14.80;70.70;;;;;;5448406;26;20067;-71
2024/04/18 05:34:08;;;;;;;5.90;2.17;;;14.80;70.70;;;;;;5447146;26;20010;-71
2024/04/18 05:36:34;;;;;;;3.30;1.77;;;14.90;70.60;;;;;;5433266;26;20084;-71
2024/04/18 05:39:03;;;;;;;3.22;1.27;;;14.90;70.50;;;;;;5438909;26;19999;-72
2024/04/18 05:41:29;;;;;;;2.13;1.23;;;14.90;70.20;;;;;;5441260;26;20008;-72
2024/04/18 05:43:55;;;;;;;3.70;1.40;;;14.90;70.30;;;;;;5495024;25;20044;-71
2024/04/18 05:46:21;;;;;;;1.90;1.40;;;14.90;70.10;;;;;;5448185;26;20015;-71
2024/04/18 05:48:47;;;;;;;3.27;1.50;;;14.90;70.20;;;;;;5449175;26;20567;-73
2024/04/18 05:51:12;;;;;;;3.27;1.30;;;15.00;70.10;;;;;;5448697;26;20017;-71
2024/04/18 05:53:38;;;;;;;2.13;1.00;;;15.00;70.10;;;;;;5508124;25;20632;-71
2024/04/18 05:56:04;;;;;;;3.70;1.73;;;15.00;70.10;;;;;;5446262;26;20003;-71
2024/04/18 05:58:30;;;;;;;1.53;1.17;;;15.00;70.10;;;;;;5446770;26;20007;-71
2024/04/18 06:00:56;;;;;;;2.87;1.80;;;15.00;69.90;;;;;;5507877;25;19999;-71
2024/04/18 06:03:24;;;;;;;3.10;1.25;;;15.00;70.00;;;;;;5448635;26;20027;-71
2024/04/18 06:05:56;;;;;;;3.50;1.35;;;15.00;70.00;;;;;;5446568;26;20038;-71
2024/04/18 06:08:21;;;;;;;2.22;1.27;;;15.00;70.10;;;;;;5447126;26;20092;-72
2024/04/18 06:10:47;;;;;;;2.53;1.10;;;15.00;70.00;;;;;;5448332;26;20389;-71
2024/04/18 06:13:13;;;;;;;2.50;1.20;;;15.00;69.80;;;;;;5448341;26;20003;-71
2024/04/18 06:15:45;;;;;;;6.07;1.23;;;15.00;69.90;;;;;;5447972;26;20005;-71
2024/04/18 06:18:11;;;;;;;2.60;1.38;;;15.00;69.70;;;;;;5445592;26;20405;-71
2024/04/18 06:20:44;;;;;;;5.27;1.27;;;15.10;69.60;;;;;;5448220;26;20003;-71
2024/04/18 06:23:10;;;;;;;2.17;1.13;;;15.10;69.40;;;;;;5448155;26;20003;-71
2024/04/18 06:25:37;;;;;;;4.13;0.93;;;15.20;69.20;;;;;;5448231;26;20007;-72
2024/04/18 06:28:06;;;;;;;4.40;1.70;;;15.30;68.90;;;;;;5445848;26;20003;-72
2024/04/18 06:30:32;;;;;;;3.60;1.15;;;15.40;68.50;;;;;;5446965;26;20013;-72
2024/04/18 06:32:58;;;;;;;2.03;1.00;;;15.40;68.60;;;;;;5448007;26;20003;-71
2024/04/18 06:35:29;;;;;;;2.77;1.07;;;15.50;68.50;;;;;;5447336;26;20516;-71
2024/04/18 06:37:54;;;;;;;3.65;1.02;;;15.50;68.30;;;;;;5447398;26;19999;-71
2024/04/18 06:40:23;;;;;;;2.43;1.10;;;15.50;68.20;;;;;;5451588;26;20475;-71
2024/04/18 06:42:49;;;;;;;2.00;1.17;;;15.60;68.00;;;;;;5510415;25;20344;-71
2024/04/18 06:45:15;;;;;;;5.82;1.40;;;15.50;68.00;;;;;;5451335;26;20087;-71
2024/04/18 06:47:41;;;;;;;4.27;1.10;;;15.60;68.00;;;;;;5451031;26;20003;-72
2024/04/18 06:50:07;;;;;;;3.27;0.90;;;15.60;67.90;;;;;;5510969;25;20007;-74
2024/04/18 06:52:33;;;;;;;1.47;0.90;;;15.60;67.50;;;;;;5451628;26;20075;-71
2024/04/18 06:54:58;;;;;;;3.07;1.00;;;15.70;67.00;;;;;;5426206;26;20007;-73
2024/04/18 06:57:24;;;;;;;1.17;0.80;;;15.60;66.80;;;;;;5448776;26;19999;-71
2024/04/18 06:59:50;;;;;;;2.83;0.97;;;15.70;67.00;;;;;;5450334;26;19999;-72
2024/04/18 07:02:15;;;;;;;1.50;0.80;;;15.60;67.30;;;;;;5451821;26;20006;-71
2024/04/18 07:04:44;;;;;;;4.90;0.97;;;15.80;67.00;;;;;;5451751;26;20048;-73
2024/04/18 07:07:10;;;;;;;2.88;1.02;;;15.80;67.00;;;;;;5448323;26;20458;-71
2024/04/18 07:09:36;;;;;;;3.80;1.27;;;15.90;66.80;;;;;;5450810;26;20002;-71
2024/04/18 07:12:02;;;;;;;2.75;1.00;;;16.10;66.50;;;;;;5449244;26;20569;-71
2024/04/18 07:14:27;;;;;;;5.00;1.43;;;16.20;66.40;;;;;;5451384;26;20006;-70
2024/04/18 07:16:53;;;;;;;1.33;1.10;;;16.40;66.20;;;;;;5450640;26;20011;-72
2024/04/18 07:19:18;;;;;;;2.00;0.90;;;16.50;65.60;;;;;;5510161;25;20075;-72
2024/04/18 07:21:44;;;;;;;3.33;0.90;;;16.50;65.40;;;;;;5449074;26;20038;-70
2024/04/18 07:24:10;;;;;;;4.77;1.13;;;16.60;65.10;;;;;;5450912;26;20006;-71
2024/04/18 07:26:35;;;;;;;2.80;1.00;;;16.60;65.00;;;;;;5450135;26;19995;-71
2024/04/18 07:29:03;;;;;;;1.40;0.97;;;16.60;65.20;;;;;;5509539;25;20007;-73
2024/04/18 07:31:29;;;;;;;4.28;0.93;;;16.70;64.90;;;;;;5508793;25;20011;-71
2024/04/18 07:33:55;;;;;;;4.28;1.23;;;16.90;64.70;;;;;;5450523;26;20349;-71
2024/04/18 07:36:21;;;;;;;6.43;1.23;;;17.00;64.20;;;;;;5438738;26;20010;-71
2024/04/18 07:38:49;;;;;;;2.50;0.70;;;17.00;64.30;;;;;;5437581;26;20018;-73
2024/04/18 07:41:14;;;;;;;4.03;0.73;;;17.10;64.20;;;;;;5450866;26;19995;-71
2024/04/18 07:43:40;;;;;;;3.60;1.38;;;17.30;63.80;;;;;;5450385;26;20154;-71
2024/04/18 07:46:06;;;;;;;4.20;1.50;;;17.70;62.60;;;;;;5450081;26;19998;-72
2024/04/18 07:48:32;;;;;;;2.10;1.33;;;18.20;61.10;;;;;;5450507;26;20431;-73
2024/04/18 07:50:58;;;;;;;4.90;1.53;;;18.70;59.40;;;;;;5450481;26;20006;-72
2024/04/18 07:53:23;;;;;;;4.03;2.00;;;19.40;57.60;;;;;;5450610;26;20009;-73
2024/04/18 07:55:49;;;;;;;16.33;10.70;;;19.90;55.90;;;;;;5450340;26;20014;-72
2024/04/18 07:58:15;;;;;;;12.48;8.82;;;20.20;54.80;;;;;;5448994;26;20630;-74
2024/04/18 08:00:41;;;;;;;10.07;5.60;;;20.30;54.10;;;;;;5450582;26;20002;-71
2024/04/18 08:03:06;;;;;;;9.63;5.23;;;20.60;53.50;;;;;;5444873;26;20006;-72
2024/04/18 08:05:32;;;;;;;11.83;8.23;;;20.60;53.20;;;;;;5443704;26;20079;-72
2024/04/18 08:07:58;;;;;;;22.40;12.40;;;20.30;53.50;;;;;;5443216;26;20010;-71
2024/04/18 08:10:23;;;;;;;16.30;10.63;;;19.80;54.60;;;;;;5443629;26;20013;-73
2024/04/18 08:12:49;;;;;;;16.20;9.13;;;19.70;55.20;;;;;;5442012;26;19998;-71
2024/04/18 08:15:15;;;;;;;16.60;8.93;;;19.80;55.20;;;;;;5442957;26;20020;-71
2024/04/18 08:17:41;;;;;;;12.97;8.90;;;19.60;55.70;;;;;;5443136;26;20112;-74
2024/04/18 08:20:07;;;;;;;10.80;8.30;;;19.80;55.20;;;;;;5443596;26;20022;-72
2024/04/18 08:22:33;;;;;;;16.98;8.40;;;20.10;54.30;;;;;;5502865;25;20002;-74
2024/04/18 08:25:02;;;;;;;12.25;8.20;;;20.10;54.20;;;;;;5503130;25;20035;-72
2024/04/18 08:27:28;;;;;;;14.82;8.15;;;19.40;55.80;;;;;;5443152;26;20003;-71
2024/04/18 08:29:54;;;;;;;13.38;7.95;;;20.20;54.10;;;;;;5443962;26;20336;-73
2024/04/18 08:32:20;;;;;;;13.00;7.17;;;20.00;54.10;;;;;;5443523;26;19998;-71
2024/04/18 08:34:46;;;;;;;8.87;6.97;;;19.50;55.40;;;;;;5443579;26;20058;-71
2024/04/18 08:37:12;;;;;;;;;;;19.10;56.40;;;;;;5416427;26;20472;-74
2024/04/18 08:39:38;;;;;;;20.13;6.80;;;18.90;56.80;;;;;;5439321;26;19992;-72
2024/04/18 08:42:10;;;;;;;13.40;6.47;;;18.90;56.80;;;;;;5442167;26;20014;-72
2024/04/18 08:44:36;;;;;;;8.43;6.15;;;19.10;56.40;;;;;;5441091;26;20011;-73
2024/04/18 08:47:03;;;;;;;9.33;5.50;;;19.10;56.20;;;;;;5440559;26;20072;-76
2024/04/18 08:49:31;;;;;;;11.32;6.05;;;18.90;56.70;;;;;;5443848;26;20026;-74
2024/04/18 08:51:58;;;;;;;7.30;5.85;;;18.70;57.20;;;;;;5449550;26;20003;-74
2024/04/18 08:54:27;;;;;;;14.13;5.65;;;18.60;57.80;;;;;;5508714;25;19998;-74
2024/04/18 08:56:55;;;;;;;8.90;5.00;;;18.80;57.40;;;;;;5508502;25;20448;-75
2024/04/18 08:59:24;;;;;;;8.85;5.40;;;18.80;57.00;;;;;;5441203;26;20007;-74
2024/04/18 09:01:51;;;;;;;10.25;4.82;;;18.50;58.00;;;;;;5435734;26;20017;-73
2024/04/18 09:04:17;;;;;;;;;;;18.40;58.30;;;;;;5450036;26;20002;-73
2024/04/18 09:06:42;;;;;;;5.95;3.97;;;18.20;58.90;;;;;;5441412;26;19932;-75
2024/04/18 09:09:16;;;;;;;10.53;5.00;;;18.30;58.80;;;;;;5505316;25;19994;-74
2024/04/18 09:11:45;;;;;;;9.77;4.43;;;18.40;58.60;;;;;;5449339;26;20009;-73
2024/04/18 09:14:11;;;;;;;7.45;4.88;;;18.60;58.00;;;;;;5447733;26;20456;-73
2024/04/18 09:16:38;;;;;;;7.87;4.27;;;18.70;57.30;;;;;;5449163;26;20087;-73
2024/04/18 09:19:04;;;;;;;6.22;3.85;;;18.80;56.90;;;;;;5449059;26;20021;-74
2024/04/18 09:21:30;;;;;;;14.63;4.32;;;18.80;57.00;;;;;;5447607;26;19999;-74
2024/04/18 09:23:57;;;;;;;11.70;4.30;;;19.00;56.80;;;;;;5447363;26;19999;-73
2024/04/18 09:26:29;;;;;;;;;;;19.20;56.40;;;;;;5449515;26;20340;-75
2024/04/18 09:28:57;;;;;;;7.20;4.00;;;19.70;55.30;;;;;;5449038;26;19973;-73
2024/04/18 09:31:25;;;;;;;9.95;4.20;;;20.30;53.80;;;;;;5442278;26;19999;-72
2024/04/18 09:33:52;;;;;;;8.57;4.65;;;20.10;53.80;;;;;;5443709;26;19995;-72
2024/04/18 09:36:19;;;;;;;5.07;3.80;;;19.90;54.10;;;;;;5433513;26;20008;-72
2024/04/18 09:38:48;;;;;;;9.07;3.83;;;20.50;53.10;;;;;;5430236;26;20014;-72
2024/04/18 09:41:18;;;;;;;6.68;3.33;;;19.80;54.10;;;;;;5443850;26;20005;-72
2024/04/18 09:43:46;;;;;;;11.82;3.92;;;19.50;55.70;;;;;;5443959;26;20375;-72
2024/04/18 09:46:14;;;;;;;8.10;3.47;;;20.00;54.10;;;;;;5444140;26;20104;-72
2024/04/18 09:48:40;;;;;;;8.25;3.60;;;19.90;54.40;;;;;;5443979;26;20083;-72
2024/04/18 09:51:06;;;;;;;7.65;3.00;;;19.20;55.90;;;;;;5441632;26;20687;-72
2024/04/18 09:53:33;;;;;;;5.47;3.13;;;18.70;57.30;;;;;;5444037;26;20035;-73
2024/04/18 09:56:01;;;;;;;3.72;2.97;;;18.70;57.50;;;;;;5443821;26;20051;-72
2024/04/18 09:58:28;;;;;;;5.97;3.15;;;19.00;57.10;;;;;;5503478;25;20018;-73
2024/04/18 10:00:55;;;;;;;5.13;2.90;;;18.90;57.20;;;;;;5441745;26;20026;-72
2024/04/18 10:03:21;;;;;;;5.82;2.75;;;18.80;57.30;;;;;;5440580;26;20513;-72
2024/04/18 10:05:50;;;;;;;7.80;3.70;;;19.10;57.00;;;;;;5444015;26;20110;-74
2024/04/18 10:08:19;;;;;;;7.32;3.03;;;18.90;56.90;;;;;;5502082;25;20247;-72
2024/04/18 10:10:46;;;;;;;12.70;3.50;;;19.00;57.10;;;;;;5502460;25;20010;-74
2024/04/18 10:13:12;;;;;;;16.70;4.65;;;19.10;56.60;;;;;;5447916;26;20052;-72
2024/04/18 10:15:38;;;;;;;15.57;4.95;;;18.70;57.90;;;;;;5451306;26;20467;-74
2024/04/18 10:18:17;;;;;;;13.43;5.57;;;18.70;58.20;;;;;;5450953;26;20010;-71
2024/04/18 10:20:46;;;;;;;20.63;6.95;;;18.50;58.60;;;;;;5444168;26;20317;-72
2024/04/18 10:23:15;;;;;;;26.95;7.82;;;18.30;58.80;;;;;;5511012;25;20331;-74
2024/04/18 10:25:43;;;;;;;30.25;8.20;;;18.20;59.30;;;;;;5451976;26;20003;-74
2024/04/18 10:28:30;;;;;;;23.83;7.15;;;18.10;59.50;;;;;;5511049;25;20339;-75
2024/04/18 10:31:05;;;;;;;25.30;8.63;;;18.10;59.60;;;;;;5429747;26;20045;-74
2024/04/18 10:33:33;;;;;;;30.95;8.45;;;18.20;59.70;;;;;;5450794;26;20002;-73
2024/04/18 10:35:59;;;;;;;24.45;8.25;;;18.20;59.40;;;;;;5503214;25;20023;-73
2024/04/18 10:38:29;;;;;;;27.60;8.27;;;18.20;59.50;;;;;;5502342;25;20026;-71
2024/04/18 10:41:05;;;;;;;32.03;8.60;;;18.20;59.70;;;;;;5451591;26;20010;-73
2024/04/18 10:43:33;;;;;;;27.10;8.55;;;18.20;59.80;;;;;;5451428;26;19998;-74
2024/04/18 10:46:06;;;;;;;23.95;8.38;;;18.20;59.90;;;;;;5449298;26;19995;-75
2024/04/18 10:48:36;;;;;;;41.17;18.55;;;18.70;58.90;;;;;;5510099;25;20013;-74
2024/04/18 10:51:03;;;;;;;40.85;16.23;;;18.80;58.50;;;;;;5451202;26;20017;-74
2024/04/18 10:53:29;;;;;;;;;;;18.90;58.30;;;;;;5452416;26;20071;-75
2024/04/18 10:55:55;;;;;;;26.02;10.85;;;19.60;56.70;;;;;;5443266;26;19925;-74
2024/04/18 10:58:20;;;;;;;29.08;10.75;;;19.40;57.00;;;;;;5450137;26;19998;-75
2024/04/18 11:00:47;;;;;;;27.27;10.55;;;19.40;56.90;;;;;;5451922;26;20011;-74
2024/04/18 11:03:13;;;;;;;24.50;10.25;;;19.10;57.80;;;;;;5450990;26;20022;-74
2024/04/18 11:05:43;;;;;;;29.88;10.00;;;19.80;56.10;;;;;;5451320;26;20007;-76
2024/04/18 11:08:09;;;;;;;21.98;8.82;;;19.80;56.00;;;;;;5450370;26;19998;-76
2024/04/18 11:10:36;;;;;;;22.02;9.63;;;19.60;56.60;;;;;;5450201;26;20459;-73
2024/04/18 11:13:02;;;;;;;;;;;19.70;56.40;;;;;;5451162;26;19995;-73
2024/04/18 11:15:29;;;;;;;18.67;7.50;;;19.70;56.40;;;;;;5425262;26;20354;-73
2024/04/18 11:17:55;;;;;;;24.30;7.25;;;20.30;55.00;;;;;;5450477;26;20018;-74
2024/04/18 11:20:20;;;;;;;20.33;7.33;;;20.00;55.80;;;;;;5451121;26;20003;-73
2024/04/18 11:22:46;;;;;;;20.37;7.47;;;19.60;56.70;;;;;;5448338;26;20450;-72
2024/04/18 11:25:12;;;;;;;20.93;7.37;;;19.40;57.50;;;;;;5450951;26;20367;-75
2024/04/18 11:27:40;;;;;;;27.57;7.97;;;19.20;58.20;;;;;;5509425;25;20014;-74
2024/04/18 11:30:13;;;;;;;17.77;7.32;;;19.10;58.60;;;;;;5450977;26;20343;-74
2024/04/18 11:32:39;;;;;;;12.57;6.13;;;19.00;59.20;;;;;;5450852;26;20044;-73
2024/04/18 11:35:05;;;;;;;18.40;6.38;;;18.90;59.30;;;;;;5450871;26;20006;-73
2024/04/18 11:37:37;;;;;;;20.87;7.10;;;18.90;59.30;;;;;;5425483;26;20463;-72
2024/04/18 11:40:09;;;;;;;16.08;6.13;;;19.00;59.20;;;;;;5451329;26;20030;-76
2024/04/18 11:42:35;;;;;;;13.77;5.75;;;19.00;59.10;;;;;;5449013;26;19995;-72
2024/04/18 11:45:00;;;;;;;14.77;5.30;;;18.90;59.40;;;;;;5510460;25;20013;-72
2024/04/18 11:47:26;;;;;;;11.63;5.20;;;18.80;60.00;;;;;;5449964;26;20562;-75
2024/04/18 11:49:52;;;;;;;23.00;5.73;;;18.60;60.50;;;;;;5450346;26;20029;-72
2024/04/18 11:52:17;;;;;;;15.73;5.53;;;18.50;60.70;;;;;;5450525;26;20459;-73
2024/04/18 11:54:43;;;;;;;12.43;4.83;;;18.50;60.80;;;;;;5424706;26;20003;-71
2024/04/18 11:57:09;;;;;;;11.83;5.27;;;18.50;60.80;;;;;;5450390;26;19995;-73
2024/04/18 11:59:37;;;;;;;13.77;4.77;;;18.50;60.70;;;;;;5450035;26;20002;-73
2024/04/18 12:02:04;;;;;;;13.73;4.35;;;18.50;60.80;;;;;;5509296;26;20104;-73
2024/04/18 12:04:29;;;;;;;16.25;4.88;;;18.50;60.70;;;;;;5502580;26;20014;-74
2024/04/18 12:06:55;;;;;;;13.47;4.70;;;18.50;60.80;;;;;;5441583;26;20848;-72
2024/04/18 12:09:21;;;;;;;15.40;5.00;;;18.50;60.90;;;;;;5443766;26;20738;-72
2024/04/18 12:11:46;;;;;;;17.83;5.23;;;18.40;61.20;;;;;;5502850;26;19999;-72
2024/04/18 12:14:13;;;;;;;13.90;5.00;;;18.40;61.20;;;;;;5442216;26;20014;-73
2024/04/18 12:16:38;;;;;;;12.82;5.10;;;18.40;61.40;;;;;;5431594;26;19999;-73
2024/04/18 12:19:04;;;;;;;13.77;4.90;;;18.40;61.60;;;;;;5441164;26;20023;-73
2024/04/18 12:21:30;;;;;;;14.47;4.50;;;18.40;61.80;;;;;;5444097;26;20733;-74
2024/04/18 12:23:55;;;;;;;10.43;3.90;;;18.40;61.80;;;;;;5443431;26;20091;-73
2024/04/18 12:26:21;;;;;;;15.13;4.10;;;18.40;61.90;;;;;;5442094;26;20005;-73
2024/04/18 12:28:47;;;;;;;16.63;4.43;;;18.50;61.90;;;;;;5491187;26;20436;-75
2024/04/18 12:31:13;;;;;;;8.77;3.80;;;18.50;62.10;;;;;;5429740;26;20002;-73
2024/04/18 12:33:38;;;;;;;12.30;4.00;;;18.40;62.20;;;;;;5502996;26;19999;-73
2024/04/18 12:36:05;;;;;;;10.60;3.17;;;18.40;62.30;;;;;;5438607;26;20010;-75
2024/04/18 12:38:30;;;;;;;7.45;3.35;;;18.50;62.00;;;;;;5448889;26;20002;-74
2024/04/18 12:40:56;;;;;;;10.47;3.77;;;18.50;61.90;;;;;;5448055;26;20448;-73